»·PEaware :: UAL618 CYVR-KSFO

UAL618 :: CYVR-KSFO

FLIGHT INFORMATION

Flight Status: Arrived
Operator:
United Airlines
More flights by this operator :: More flights under this callsign
Pilot: Chuck O. (4337)
Aircraft: AIRBUS A320
(A320)
More flights by this aircraft type
Origin: CYVR Vancouver Intl
Canada
Destination: KSFO San Francisco Intl
United States
More flights between these airports :: More routes between these airports
Route: +YYJ SQUIM ELMAA CVO RBG ENVIE MLBEC BDEGA2
File this flight plan on PilotEdge
Remarks: SEL / CHAR
Altitude:
(Current/Filed)
370ft
Speed:
(Current/Filed)
440kts
Departed: 06-Dec-17 03:53 PM
Arrived: 06-Dec-17 05:45 PM
Distance/Time
Traveled:
695nm/1:52
Distance/Time
To Go:
Arrived

Flight Plot

Page will automatically refresh every two minutes.

Flight plan parsing failed; only flown route is shown


Map Options




Map Legend


Flown Route
Filed Route
Departure Airport
Arrival Airport
Navaid (VOR, NDB)
Fix

Horizontal Profiles

Position Reports

Time Latitude Longitude Heading Altitude Ground
Speed
06-Dec-17 15:31 49.198305 -123.173886 182 28ft 0kts
06-Dec-17 15:32 49.198305 -123.173886 182 28ft 0kts
06-Dec-17 15:34 49.198305 -123.173886 182 28ft 0kts
06-Dec-17 15:35 49.198305 -123.173886 182 28ft 0kts
06-Dec-17 15:36 49.198305 -123.173886 182 28ft 0kts
06-Dec-17 15:37 49.198305 -123.173886 182 28ft 0kts
06-Dec-17 15:38 49.198305 -123.173886 182 28ft 0kts
06-Dec-17 15:38 49.198305 -123.173886 182 28ft 0kts
06-Dec-17 15:40 49.198305 -123.173886 182 28ft 0kts
06-Dec-17 15:41 49.198305 -123.173886 182 28ft 0kts
06-Dec-17 15:41 49.198305 -123.173886 182 28ft 0kts
06-Dec-17 15:42 49.198305 -123.173886 182 28ft 0kts
06-Dec-17 15:44 49.198305 -123.173886 182 28ft 0kts
06-Dec-17 15:44 49.198305 -123.173886 182 28ft 0kts
06-Dec-17 15:45 49.198690 -123.173905 169 28ft 2kts
06-Dec-17 15:46 49.199106 -123.174422 99 28ft 1kts
06-Dec-17 15:47 49.199106 -123.174422 99 28ft 0kts
06-Dec-17 15:48 49.199106 -123.174422 99 28ft 0kts
06-Dec-17 15:49 49.199106 -123.174422 99 28ft 0kts
06-Dec-17 15:50 49.199106 -123.174422 99 28ft 0kts
06-Dec-17 15:51 49.199106 -123.174421 99 28ft 0kts
06-Dec-17 15:52 49.199106 -123.174419 99 28ft 0kts
06-Dec-17 15:53 49.199106 -123.174418 99 28ft 0kts
06-Dec-17 15:54 49.199616 -123.171346 92 28ft 18kts
06-Dec-17 15:55 49.198602 -123.162204 98 28ft 15kts
06-Dec-17 15:56 49.199346 -123.160788 9 28ft 0kts
06-Dec-17 15:57 49.200544 -123.161296 286 28ft 0kts
06-Dec-17 15:58 49.200975 -123.164590 279 28ft 68kts
06-Dec-17 15:59 49.208472 -123.231220 277 1810ft 195kts
06-Dec-17 16:00 49.208533 -123.326196 231 3855ft 263kts
06-Dec-17 16:01 49.138063 -123.351628 191 6810ft 275kts
06-Dec-17 16:02 49.062356 -123.377319 190 9487ft 285kts
06-Dec-17 16:03 48.979054 -123.403965 191 11426ft 333kts
06-Dec-17 16:04 48.882082 -123.434798 191 13066ft 373kts
06-Dec-17 16:05 48.779354 -123.467464 191 15828ft 371kts
06-Dec-17 16:06 48.691419 -123.484112 178 17626ft 382kts
06-Dec-17 16:07 48.583586 -123.477943 177 19593ft 394kts
06-Dec-17 16:08 48.472145 -123.473320 178 21439ft 405kts
06-Dec-17 16:09 48.358334 -123.468051 178 23099ft 415kts
06-Dec-17 16:10 48.243350 -123.462900 177 24608ft 423kts
06-Dec-17 16:11 48.124594 -123.457122 177 26040ft 429kts
06-Dec-17 16:12 48.004093 -123.451273 177 27273ft 438kts
06-Dec-17 16:13 47.881054 -123.445113 177 28416ft 445kts
06-Dec-17 16:14 47.756222 -123.439072 177 29467ft 453kts
06-Dec-17 16:15 47.629352 -123.432864 177 30470ft 460kts
06-Dec-17 16:16 47.500071 -123.426726 177 31376ft 467kts
06-Dec-17 16:17 47.370219 -123.420434 177 32506ft 466kts
06-Dec-17 16:18 47.240293 -123.414161 177 33508ft 465kts
06-Dec-17 16:19 47.111475 -123.408035 178 34493ft 463kts
06-Dec-17 16:20 46.982274 -123.402245 177 35310ft 464kts
06-Dec-17 16:21 46.853274 -123.396358 178 36029ft 464kts
06-Dec-17 16:22 46.724368 -123.390491 178 36625ft 465kts
06-Dec-17 16:23 46.595091 -123.384486 178 37177ft 463kts
06-Dec-17 16:24 46.466250 -123.378889 178 37601ft 464kts
06-Dec-17 16:25 46.337552 -123.373058 178 37592ft 464kts
06-Dec-17 16:26 46.208343 -123.367380 178 37585ft 463kts
06-Dec-17 16:27 46.081122 -123.361749 178 37584ft 463kts
06-Dec-17 16:28 45.952069 -123.355987 178 37568ft 464kts
06-Dec-17 16:29 45.822666 -123.350276 178 37543ft 464kts
06-Dec-17 16:30 45.694226 -123.344706 178 37544ft 464kts
06-Dec-17 16:31 45.564602 -123.338962 178 37544ft 464kts
06-Dec-17 16:32 45.435610 -123.333691 178 37540ft 464kts
06-Dec-17 16:33 45.306464 -123.328110 178 37520ft 465kts
06-Dec-17 16:34 45.177356 -123.322430 178 37515ft 465kts
06-Dec-17 16:35 45.047773 -123.316849 178 37506ft 465kts
06-Dec-17 16:36 44.918253 -123.311528 178 37492ft 466kts
06-Dec-17 16:37 44.788341 -123.306051 179 37484ft 466kts
06-Dec-17 16:38 44.658698 -123.300423 179 37466ft 467kts
06-Dec-17 16:39 44.528641 -123.295123 179 37479ft 467kts
06-Dec-17 16:40 44.398944 -123.298105 183 37495ft 466kts
06-Dec-17 16:41 44.269590 -123.304246 183 37516ft 466kts
06-Dec-17 16:42 44.139441 -123.310212 183 37494ft 467kts
06-Dec-17 16:43 44.009585 -123.315795 183 37521ft 467kts
06-Dec-17 16:44 43.879574 -123.321685 183 37533ft 467kts
06-Dec-17 16:45 43.749734 -123.327467 183 37526ft 468kts
06-Dec-17 16:46 43.619641 -123.333149 183 37528ft 468kts
06-Dec-17 16:47 43.489098 -123.338961 183 37537ft 468kts
06-Dec-17 16:48 43.359015 -123.344724 183 37541ft 468kts
06-Dec-17 16:49 43.228364 -123.350306 183 37543ft 469kts
06-Dec-17 16:50 43.097759 -123.346183 177 37541ft 471kts
06-Dec-17 16:51 42.967084 -123.335282 178 37532ft 471kts
06-Dec-17 16:52 42.835947 -123.324997 177 37524ft 471kts
06-Dec-17 16:53 42.705294 -123.314685 178 37516ft 471kts
06-Dec-17 16:54 42.574605 -123.304333 178 37512ft 470kts
06-Dec-17 16:55 42.444806 -123.294248 178 37513ft 470kts
06-Dec-17 16:56 42.314433 -123.284110 178 37517ft 470kts
06-Dec-17 16:57 42.183555 -123.274006 178 37519ft 470kts
06-Dec-17 16:58 42.053228 -123.263777 178 37522ft 469kts
06-Dec-17 16:59 41.922942 -123.253724 178 37516ft 469kts
06-Dec-17 17:00 41.791888 -123.243649 178 37499ft 470kts
06-Dec-17 17:01 41.661366 -123.233759 178 37518ft 470kts
06-Dec-17 17:02 41.530697 -123.223704 178 37526ft 471kts
06-Dec-17 17:03 41.399500 -123.213831 178 37520ft 472kts
06-Dec-17 17:04 41.268547 -123.201999 177 37484ft 473kts
06-Dec-17 17:05 41.136997 -123.188058 177 37466ft 473kts
06-Dec-17 17:06 41.006011 -123.174429 177 37462ft 473kts
06-Dec-17 17:07 40.874977 -123.160729 177 37451ft 472kts
06-Dec-17 17:08 40.743600 -123.147059 177 37444ft 472kts
06-Dec-17 17:09 40.612784 -123.133545 177 37441ft 472kts
06-Dec-17 17:10 40.481774 -123.120088 177 37438ft 472kts
06-Dec-17 17:11 40.350337 -123.106626 177 37428ft 472kts
06-Dec-17 17:12 40.219481 -123.093184 177 37428ft 472kts
06-Dec-17 17:13 40.088482 -123.080213 177 37420ft 473kts
06-Dec-17 17:14 39.957028 -123.066542 177 37419ft 472kts
06-Dec-17 17:15 39.826068 -123.053443 177 37416ft 472kts
06-Dec-17 17:16 39.694743 -123.040243 177 37402ft 472kts
06-Dec-17 17:17 39.563736 -123.027130 177 37390ft 472kts
06-Dec-17 17:18 39.432768 -123.014188 177 37383ft 472kts
06-Dec-17 17:19 39.301327 -123.001124 177 37386ft 472kts
06-Dec-17 17:20 39.170366 -122.988145 177 37383ft 472kts
06-Dec-17 17:21 39.039092 -122.975220 177 36955ft 472kts
06-Dec-17 17:22 38.907934 -122.962139 177 35303ft 476kts
06-Dec-17 17:23 38.776907 -122.931016 166 32634ft 483kts
06-Dec-17 17:24 38.646753 -122.891853 168 30090ft 472kts
06-Dec-17 17:25 38.521491 -122.855141 167 27541ft 453kts
06-Dec-17 17:26 38.401149 -122.819585 166 25062ft 436kts
06-Dec-17 17:27 38.285099 -122.785543 166 22682ft 415kts
06-Dec-17 17:28 38.175207 -122.753443 166 20441ft 398kts
06-Dec-17 17:29 38.066533 -122.721879 166 17900ft 400kts
06-Dec-17 17:30 37.961875 -122.691577 165 15740ft 372kts
06-Dec-17 17:31 37.870159 -122.645192 137 13764ft 356kts
06-Dec-17 17:32 37.799171 -122.567014 138 12397ft 314kts
06-Dec-17 17:33 37.733682 -122.498215 137 11049ft 300kts
06-Dec-17 17:34 37.670289 -122.430612 137 10986ft 299kts
06-Dec-17 17:35 37.606090 -122.363405 144 10989ft 300kts
06-Dec-17 17:36 37.529915 -122.318668 151 10665ft 304kts
06-Dec-17 17:37 37.456861 -122.271264 140 9203ft 296kts
06-Dec-17 17:38 37.417730 -122.188836 113 7792ft 263kts
06-Dec-17 17:39 37.388334 -122.111923 113 6804ft 230kts
06-Dec-17 17:40 37.368831 -122.038097 68 5318ft 218kts
06-Dec-17 17:41 37.417351 -122.032826 324 4364ft 205kts
06-Dec-17 17:42 37.457501 -122.075364 323 3972ft 179kts
06-Dec-17 17:44 37.497646 -122.118201 324 3989ft 188kts
06-Dec-17 17:45 37.528188 -122.159566 301 3706ft 146kts
06-Dec-17 17:46 37.546575 -122.203211 303 2823ft 140kts
06-Dec-17 17:47 37.564911 -122.246787 298 2026ft 145kts
06-Dec-17 17:48 37.583211 -122.290382 298 1255ft 138kts
06-Dec-17 17:49 37.600946 -122.332643 297 526ft 135kts
06-Dec-17 17:50 37.617908 -122.373080 296 27ft 91kts
06-Dec-17 17:50 37.621548 -122.382011 287 27ft 10kts
06-Dec-17 17:52 37.621301 -122.383137 208 27ft 0kts
06-Dec-17 17:52 37.621300 -122.383137 208 27ft 0kts
06-Dec-17 17:54 37.621299 -122.383138 208 27ft 0kts
06-Dec-17 17:55 37.620217 -122.383118 127 27ft 10kts
06-Dec-17 17:55 37.619430 -122.382516 182 27ft 0kts
06-Dec-17 17:57 37.619429 -122.382516 182 27ft 0kts
06-Dec-17 17:57 37.619428 -122.382516 182 27ft 0kts
06-Dec-17 17:58 37.619427 -122.382516 182 27ft 0kts
06-Dec-17 17:59 37.618393 -122.382977 226 27ft 10kts
06-Dec-17 18:00 37.618490 -122.383999 292 27ft 0kts

Navigation Log

Ident Type
Flight plan parsing failed, navigation log unavailable